Time;durP1;ratioP1;P1;durP2;ratioP2;P2;SDS_P1;SDS_P2;PMS_P1;PMS_P2;Temp;Humidity;BMP_temperature;BMP_pressure;BME280_temperature;BME280_humidity;BME280_pressure;Samples;Min_cycle;Max_cycle;Signal;HPM_P1;HPM_P2
2022/09/26 07:42:06;;;;;;;;;;;;;;;8.05;100.00;98793.44;5356435;23;19959;-84
2022/09/26 07:44:31;;;;;;;;;;;;;;;8.02;100.00;98797.06;5016960;28;20380;-82
2022/09/26 07:50:14;;;;;;;;;;;;;;;8.00;100.00;98786.59;4973556;28;19922;-83
2022/09/26 07:52:41;;;;;;;;;;;;;;;8.07;100.00;98779.22;4973511;28;20013;-83
2022/09/26 07:55:06;;;;;;;;;;;;;;;8.09;100.00;98780.03;4999702;28;19917;-81
2022/09/26 07:57:34;;;;;;;;;;;;;;;8.13;100.00;98780.72;5023009;28;19928;-82
2022/09/26 08:00:04;;;;;;;;;;;;;;;8.12;100.00;98771.09;5017522;28;20391;-83
2022/09/26 08:02:34;;;;;;;;;;;;;;;8.12;100.00;98771.97;5003295;28;19922;-83
2022/09/26 08:05:02;;;;;;;;;;;;;;;8.09;100.00;98763.31;5002776;28;19995;-83
2022/09/26 08:07:28;;;;;;;;;;;;;;;8.15;100.00;98765.66;5018767;28;20008;-83
2022/09/26 08:09:53;;;;;;;;;;;;;;;8.14;100.00;98764.81;5002119;28;20001;-83
2022/09/26 08:12:18;;;;;;;;;;;;;;;8.21;100.00;98761.88;4999132;28;20377;-83
2022/09/26 08:14:51;;;;;;;;;;;;;;;8.22;100.00;98760.94;5003009;28;20274;-83
2022/09/26 08:17:17;;;;;;;;;;;;;;;8.24;100.00;98759.09;5002504;28;19921;-82
2022/09/26 08:19:42;;;;;;;;;;;;;;;8.21;100.00;98761.88;5005506;28;19924;-82
2022/09/26 08:22:08;;;;;;;;;;;;;;;8.04;100.00;98755.66;4997556;28;19918;-82
2022/09/26 08:24:33;;;;;;;;;;;;;;;8.08;100.00;98759.84;4995728;28;19926;-83
2022/09/26 08:27:01;;;;;;;;;;;;;;;8.10;100.00;98750.06;5001116;28;20005;-84
2022/09/26 08:29:26;;;;;;;;;;;;;;;7.98;100.00;98743.59;4999795;28;20349;-83
2022/09/26 08:31:52;;;;;;;;;;;;;;;8.06;100.00;98742.34;5002486;28;19968;-83
2022/09/26 08:34:19;;;;;;;;;;;;;;;8.03;100.00;98738.09;5000247;28;19918;-83
2022/09/26 08:36:50;;;;;;;;;;;;;;;7.98;100.00;98737.47;5000632;28;19929;-83
2022/09/26 08:39:15;;;;;;;;;;;;;;;7.97;100.00;98735.75;5010495;28;19926;-83
2022/09/26 08:41:59;;;;;;;;;;;;;;;7.97;100.00;98728.69;4997478;28;20376;-83
2022/09/26 08:44:28;;;;;;;;;;;;;;;7.98;100.00;98732.22;5001580;28;19929;-83
2022/09/26 08:47:04;;;;;;;;;;;;;;;7.99;100.00;98725.97;4998462;28;19921;-83
2022/09/26 08:49:40;;;;;;;;;;;;;;;8.05;100.00;98720.41;5002955;28;19928;-83
2022/09/26 08:52:13;;;;;;;;;;;;;;;8.02;100.00;98720.56;5020150;28;20052;-83
2022/09/26 08:54:40;;;;;;;;;;;;;;;7.97;100.00;98722.56;5023683;28;19922;-82
2022/09/26 08:57:14;;;;;;;;;;;;;;;7.99;100.00;98723.34;5005006;28;19939;-85
2022/09/26 08:59:41;;;;;;;;;;;;;;;8.07;100.00;98707.97;5020764;28;20406;-83
2022/09/26 09:02:25;;;;;;;;;;;;;;;8.13;100.00;98715.59;5022000;28;19968;-83
2022/09/26 09:04:56;;;;;;;;;;;;;;;8.15;100.00;98708.47;5022443;28;20005;-83
2022/09/26 09:07:22;;;;;;;;;;;;;;;8.06;100.00;98713.34;5018792;28;20344;-83
2022/09/26 09:09:48;;;;;;;;;;;;;;;8.10;100.00;98709.63;5003833;28;20022;-83
2022/09/26 09:12:23;;;;;;;;;;;;;;;8.21;100.00;98706.47;5023175;28;19929;-84
2022/09/26 09:15:01;;;;;;;;;;;;;;;8.13;100.00;98705.03;5016242;28;19919;-83
2022/09/26 09:17:32;;;;;;;;;;;;;;;8.19;100.00;98698.63;5019378;28;20376;-82
2022/09/26 09:20:03;;;;;;;;;;;;;;;8.09;100.00;98697.34;5021021;28;19921;-83
2022/09/26 09:22:40;;;;;;;;;;;;;;;8.36;100.00;98703.06;5021613;28;20066;-83
2022/09/26 09:25:06;;;;;;;;;;;;;;;8.22;100.00;98695.81;5013646;28;19921;-83
2022/09/26 09:27:49;;;;;;;;;;;;;;;8.30;100.00;98692.81;5018566;28;19928;-83
2022/09/26 09:30:18;;;;;;;;;;;;;;;8.24;100.00;98691.31;5003976;28;20548;-83
2022/09/26 09:32:47;;;;;;;;;;;;;;;8.28;100.00;98689.38;5004575;28;20364;-84
2022/09/26 09:35:13;;;;;;;;;;;;;;;8.17;100.00;98690.78;5005955;28;20003;-84
2022/09/26 09:37:43;;;;;;;;;;;;;;;8.15;100.00;98692.66;5004282;28;19928;-83
2022/09/26 09:40:30;;;;;;;;;;;;;;;8.17;100.00;98688.13;5002388;28;19918;-84
2022/09/26 09:43:00;;;;;;;;;;;;;;;8.24;100.00;98687.84;5019128;28;20292;-82
2022/09/26 09:45:28;;;;;;;;;;;;;;;8.39;100.00;98679.13;5004647;28;20007;-83
2022/09/26 09:47:54;;;;;;;;;;;;;;;8.36;100.00;98669.59;5005000;28;20018;-84
2022/09/26 09:50:38;;;;;;;;;;;;;;;8.23;100.00;98671.13;5005826;28;19967;-83
2022/09/26 09:53:12;;;;;;;;;;;;;;;8.25;100.00;98668.41;5021907;28;19982;-84
2022/09/26 09:55:41;;;;;;;;;;;;;;;8.21;100.00;98658.97;5003566;28;20704;-83
2022/09/26 09:58:15;;;;;;;;;;;;;;;8.27;100.00;98656.00;5020770;28;19929;-83
2022/09/26 10:00:45;;;;;;;;;;;;;;;8.28;100.00;98648.03;5021687;28;19928;-83
2022/09/26 10:03:10;;;;;;;;;;;;;;;8.30;100.00;98647.94;5021195;28;20003;-83
2022/09/26 10:05:41;;;;;;;;;;;;;;;8.18;100.00;98650.28;5005525;28;20432;-86
2022/09/26 10:08:11;;;;;;;;;;;;;;;8.13;100.00;98640.88;5021697;28;19913;-82
2022/09/26 10:10:37;;;;;;;;;;;;;;;8.14;100.00;98648.72;5017528;28;19925;-83
2022/09/26 10:13:04;;;;;;;;;;;;;;;8.20;100.00;98647.56;5003521;28;19925;-84
2022/09/26 10:15:31;;;;;;;;;;;;;;;8.19;100.00;98648.47;5021167;28;19925;-81
2022/09/26 10:17:59;;;;;;;;;;;;;;;8.22;100.00;98635.13;5003631;28;19928;-83
2022/09/26 10:20:39;;;;;;;;;;;;;;;8.18;100.00;98638.84;5020999;28;19921;-84
2022/09/26 10:23:09;;;;;;;;;;;;;;;8.15;100.00;98636.38;5021706;28;20376;-82
2022/09/26 10:25:34;;;;;;;;;;;;;;;8.19;100.00;98641.41;5018956;28;19929;-82
2022/09/26 10:28:03;;;;;;;;;;;;;;;8.17;100.00;98632.72;5022337;28;19928;-83
2022/09/26 10:30:31;;;;;;;;;;;;;;;8.07;100.00;98626.19;5022889;28;19924;-83
2022/09/26 10:32:58;;;;;;;;;;;;;;;8.19;100.00;98625.56;5022546;28;20360;-85
2022/09/26 10:35:25;;;;;;;;;;;;;;;8.01;100.00;98626.53;5005068;28;19921;-83
2022/09/26 10:37:57;;;;;;;;;;;;;;;8.11;100.00;98632.19;5020874;28;20394;-83
2022/09/26 10:40:45;;;;;;;;;;;;;;;8.15;100.00;98633.72;4998678;28;20428;-83
2022/09/26 10:43:27;;;;;;;;;;;;;;;8.25;100.00;98634.09;5002504;28;20008;-84
2022/09/26 10:46:05;;;;;;;;;;;;;;;8.27;100.00;98621.69;5002601;28;19931;-86
2022/09/26 10:48:47;;;;;;;;;;;;;;;8.09;100.00;98616.44;5001619;28;19922;-83
2022/09/26 10:51:29;;;;;;;;;;;;;;;8.10;100.00;98623.41;5020947;28;19931;-83
2022/09/26 10:53:58;;;;;;;;;;;;;;;8.15;100.00;98624.03;5004242;28;20186;-83
2022/09/26 10:56:26;;;;;;;;;;;;;;;8.04;100.00;98615.84;5002772;28;19924;-83
2022/09/26 10:58:56;;;;;;;;;;;;;;;8.08;100.00;98614.72;5019648;28;19959;-84
2022/09/26 11:01:24;;;;;;;;;;;;;;;8.10;100.00;98604.09;5000954;28;19928;-82
2022/09/26 11:03:50;;;;;;;;;;;;;;;8.21;100.00;98606.19;5017041;28;19944;-83
2022/09/26 11:06:23;;;;;;;;;;;;;;;8.15;100.00;98605.56;5007994;28;20376;-86
2022/09/26 11:08:55;;;;;;;;;;;;;;;8.12;100.00;98611.00;5004304;28;19925;-86
2022/09/26 11:11:21;;;;;;;;;;;;;;;8.22;100.00;98608.75;4999957;28;19930;-82
2022/09/26 11:14:02;;;;;;;;;;;;;;;8.31;100.00;98595.06;5003381;28;19922;-84
2022/09/26 11:16:28;;;;;;;;;;;;;;;8.22;100.00;98597.31;5020655;28;20288;-84
2022/09/26 11:19:00;;;;;;;;;;;;;;;8.28;100.00;98586.44;5001854;28;20380;-86
2022/09/26 11:21:40;;;;;;;;;;;;;;;8.29;100.00;98585.53;5019597;28;19960;-84
2022/09/26 11:24:24;;;;;;;;;;;;;;;8.21;100.00;98596.47;5021204;28;19924;-83
2022/09/26 11:27:04;;;;;;;;;;;;;;;8.17;100.00;98585.22;5002169;28;19917;-82
2022/09/26 11:29:41;;;;;;;;;;;;;;;8.19;100.00;98575.44;5002335;28;19921;-83
2022/09/26 11:32:17;;;;;;;;;;;;;;;8.26;100.00;98577.75;5019032;28;19928;-82
2022/09/26 11:34:43;;;;;;;;;;;;;;;8.21;100.00;98574.53;5000869;28;19925;-83
2022/09/26 11:37:08;;;;;;;;;;;;;;;8.33;100.00;98571.25;5001559;28;19925;-83
2022/09/26 11:40:03;;;;;;;;;;;;;;;8.37;100.00;98570.13;5003327;28;19936;-83
2022/09/26 11:42:31;;;;;;;;;;;;;;;8.28;100.00;98557.41;5004117;28;20420;-83
2022/09/26 11:44:58;;;;;;;;;;;;;;;8.18;100.00;98555.28;5001090;28;19941;-83
2022/09/26 11:47:48;;;;;;;;;;;;;;;8.27;100.00;98553.94;4999575;28;19929;-83
2022/09/26 11:50:22;;;;;;;;;;;;;;;8.36;100.00;98547.31;4996474;28;19928;-84
2022/09/26 11:52:47;;;;;;;;;;;;;;;8.18;100.00;98534.19;5000084;28;19929;-83
2022/09/26 11:55:15;;;;;;;;;;;;;;;8.18;100.00;98518.34;5000401;28;19918;-83
2022/09/26 11:57:58;;;;;;;;;;;;;;;8.14;100.00;98516.78;4998935;28;20017;-83
2022/09/26 12:00:29;;;;;;;;;;;;;;;8.16;100.00;98508.78;5000779;28;20001;-83
2022/09/26 12:03:14;;;;;;;;;;;;;;;8.07;100.00;98504.84;4999663;28;19922;-84
2022/09/26 12:06:03;;;;;;;;;;;;;;;8.15;100.00;98492.13;5000386;28;19964;-84
2022/09/26 12:08:47;;;;;;;;;;;;;;;8.13;100.00;98488.69;5016743;28;19930;-83
2022/09/26 12:11:16;;;;;;;;;;;;;;;8.06;100.00;98487.31;5002176;28;19932;-83
2022/09/26 12:13:58;;;;;;;;;;;;;;;8.14;100.00;98485.13;5004197;28;19917;-83
2022/09/26 12:16:45;;;;;;;;;;;;;;;8.13;100.00;98479.94;5003769;28;20349;-84
2022/09/26 12:19:33;;;;;;;;;;;;;;;8.13;100.00;98469.38;4998373;28;19944;-83
2022/09/26 12:22:28;;;;;;;;;;;;;;;8.14;100.00;98469.28;4963717;28;19981;-86
2022/09/26 12:25:04;;;;;;;;;;;;;;;8.27;100.00;98463.38;4968714;28;20033;-90
2022/09/26 12:27:29;;;;;;;;;;;;;;;8.25;100.00;98452.88;5002165;28;19922;-83
2022/09/26 12:30:04;;;;;;;;;;;;;;;8.21;100.00;98440.78;5004763;28;19918;-83
2022/09/26 12:32:36;;;;;;;;;;;;;;;8.09;100.00;98439.69;5003061;28;19968;-83
2022/09/26 12:35:06;;;;;;;;;;;;;;;8.15;100.00;98442.00;5003517;28;19924;-83
2022/09/26 12:37:42;;;;;;;;;;;;;;;8.16;100.00;98433.13;5018519;28;20008;-83
2022/09/26 12:40:32;;;;;;;;;;;;;;;8.25;100.00;98433.53;5000040;28;20376;-83
2022/09/26 12:43:18;;;;;;;;;;;;;;;8.22;100.00;98425.78;5012898;28;19928;-84
2022/09/26 12:46:02;;;;;;;;;;;;;;;8.19;100.00;98418.91;5006538;28;20403;-85
2022/09/26 12:48:41;;;;;;;;;;;;;;;8.12;100.00;98410.50;5004751;28;19987;-86
2022/09/26 12:51:28;;;;;;;;;;;;;;;8.31;100.00;98415.63;5004856;28;19999;-83
2022/09/26 12:53:54;;;;;;;;;;;;;;;8.33;100.00;98400.53;5007321;28;20000;-84
2022/09/26 12:56:38;;;;;;;;;;;;;;;8.30;100.00;98403.34;5019442;28;20071;-84
2022/09/26 12:59:06;;;;;;;;;;;;;;;8.34;100.00;98393.47;5005661;28;20316;-82
2022/09/26 13:01:31;;;;;;;;;;;;;;;8.33;100.00;98397.06;5019303;28;19971;-82
2022/09/26 13:03:59;;;;;;;;;;;;;;;8.24;100.00;98387.84;5003718;28;19925;-84
2022/09/26 13:06:40;;;;;;;;;;;;;;;8.29;100.00;98382.31;5021922;28;20002;-84
2022/09/26 13:09:11;;;;;;;;;;;;;;;8.25;100.00;98375.50;5003679;28;19929;-83
2022/09/26 13:11:55;;;;;;;;;;;;;;;8.26;100.00;98372.78;5003844;28;20312;-84
2022/09/26 13:14:30;;;;;;;;;;;;;;;8.27;100.00;98360.44;5023255;28;19922;-83
2022/09/26 13:17:09;;;;;;;;;;;;;;;8.22;100.00;98365.97;5019930;28;19935;-84
2022/09/26 13:19:50;;;;;;;;;;;;;;;8.22;100.00;98359.81;5023734;28;19926;-83
2022/09/26 13:22:35;;;;;;;;;;;;;;;8.25;100.00;98365.81;5003049;28;19988;-83
2022/09/26 13:25:00;;;;;;;;;;;;;;;8.32;100.00;98348.69;5006054;28;19917;-84
2022/09/26 13:27:35;;;;;;;;;;;;;;;8.29;100.00;98346.22;5004498;28;19928;-83
2022/09/26 13:30:03;;;;;;;;;;;;;;;8.28;100.00;98339.25;5003352;28;20275;-83
2022/09/26 13:32:33;;;;;;;;;;;;;;;8.35;100.00;98326.56;5022304;28;19925;-88
2022/09/26 13:35:04;;;;;;;;;;;;;;;8.26;100.00;98329.72;5003766;28;20020;-83
2022/09/26 13:37:51;;;;;;;;;;;;;;;8.29;100.00;98330.38;5020354;28;19931;-83
2022/09/26 13:40:16;;;;;;;;;;;;;;;8.28;100.00;98322.53;5002173;28;20672;-83
2022/09/26 13:43:11;;;;;;;;;;;;;;;8.29;100.00;98325.09;5004890;28;19976;-84
2022/09/26 13:45:49;;;;;;;;;;;;;;;8.34;100.00;98328.34;5000700;28;20407;-86
2022/09/26 13:48:24;;;;;;;;;;;;;;;8.25;100.00;98320.94;5003114;28;19929;-83
2022/09/26 13:50:54;;;;;;;;;;;;;;;8.31;100.00;98311.81;5020245;28;20020;-83
2022/09/26 13:53:22;;;;;;;;;;;;;;;8.28;100.00;98312.84;5021575;28;19922;-83
2022/09/26 13:56:06;;;;;;;;;;;;;;;8.38;100.00;98307.91;5021019;28;19994;-83
2022/09/26 13:58:38;;;;;;;;;;;;;;;8.31;100.00;98301.25;5003712;28;19933;-83
2022/09/26 14:01:23;;;;;;;;;;;;;;;8.39;100.00;98303.47;5005734;28;19918;-86
2022/09/26 14:03:49;;;;;;;;;;;;;;;8.39;100.00;98292.91;5005077;28;19921;-84
2022/09/26 14:06:24;;;;;;;;;;;;;;;8.43;100.00;98294.44;5013143;28;19967;-83
2022/09/26 14:11:48;;;;;;;;;;;;;;;8.42;100.00;98298.84;5018693;28;20284;-84
2022/09/26 14:14:17;;;;;;;;;;;;;;;8.35;100.00;98297.53;5002773;28;19921;-84
2022/09/26 14:16:42;;;;;;;;;;;;;;;8.43;100.00;98292.69;5002975;28;19921;-84
2022/09/26 14:19:29;;;;;;;;;;;;;;;8.42;100.00;98288.28;5021408;28;19974;-84
2022/09/26 14:21:59;;;;;;;;;;;;;;;8.36;100.00;98278.13;5020056;28;20205;-82
2022/09/26 14:24:29;;;;;;;;;;;;;;;8.32;100.00;98271.31;5010750;28;19924;-83
2022/09/26 14:27:10;;;;;;;;;;;;;;;8.38;100.00;98263.03;4999678;28;20423;-83
2022/09/26 14:29:38;;;;;;;;;;;;;;;8.33;100.00;98270.38;5005450;28;19972;-83
2022/09/26 14:32:13;;;;;;;;;;;;;;;8.37;100.00;98264.81;5008292;28;19929;-82
2022/09/26 14:34:58;;;;;;;;;;;;;;;8.42;100.00;98272.47;5001461;28;19987;-82
2022/09/26 14:37:23;;;;;;;;;;;;;;;8.31;100.00;98266.94;5019991;28;19922;-83
2022/09/26 14:40:08;;;;;;;;;;;;;;;8.33;100.00;98267.75;5002560;28;20305;-83
2022/09/26 14:42:34;;;;;;;;;;;;;;;8.35;100.00;98260.56;4985420;28;19921;-83
2022/09/26 14:45:01;;;;;;;;;;;;;;;8.35;100.00;98250.00;5002636;28;19931;-83
2022/09/26 14:47:29;;;;;;;;;;;;;;;8.35;100.00;98252.66;5007839;28;19944;-83
2022/09/26 14:50:04;;;;;;;;;;;;;;;8.30;100.00;98247.63;5017955;28;19925;-84
2022/09/26 14:52:30;;;;;;;;;;;;;;;8.40;100.00;98245.31;4994370;28;19925;-84
2022/09/26 14:55:00;;;;;;;;;;;;;;;8.45;100.00;98238.00;5008894;28;19960;-83
2022/09/26 14:57:27;;;;;;;;;;;;;;;8.36;100.00;98244.66;4999546;28;19925;-82
2022/09/26 14:59:53;;;;;;;;;;;;;;;8.35;100.00;98237.66;5002988;28;20273;-83
2022/09/26 15:02:24;;;;;;;;;;;;;;;8.42;100.00;98227.59;5001030;28;19924;-84
2022/09/26 15:05:02;;;;;;;;;;;;;;;8.50;100.00;98238.59;5015077;28;19924;-84
2022/09/26 15:07:30;;;;;;;;;;;;;;;8.45;100.00;98245.91;4995808;28;19917;-83
2022/09/26 15:10:01;;;;;;;;;;;;;;;8.46;100.00;98239.72;5015075;28;19925;-83
2022/09/26 15:12:43;;;;;;;;;;;;;;;8.44;100.00;98232.81;5002232;28;19964;-84
2022/09/26 15:15:15;;;;;;;;;;;;;;;8.39;100.00;98235.69;4999113;28;20396;-84
2022/09/26 15:17:44;;;;;;;;;;;;;;;8.45;100.00;98237.16;5020085;28;19928;-83
2022/09/26 15:20:16;;;;;;;;;;;;;;;8.43;100.00;98236.38;5002979;28;19921;-84
2022/09/26 15:22:42;;;;;;;;;;;;;;;8.52;100.00;98246.41;5005555;28;20039;-82
2022/09/26 15:25:08;;;;;;;;;;;;;;;8.43;100.00;98257.50;5013108;28;20391;-86
2022/09/26 15:27:33;;;;;;;;;;;;;;;8.51;100.00;98271.97;5019653;28;19925;-83
2022/09/26 15:30:26;;;;;;;;;;;;;;;8.54;100.00;98266.50;5020215;28;19918;-86
2022/09/26 15:32:58;;;;;;;;;;;;;;;8.61;100.00;98256.44;5015511;28;19925;-84
2022/09/26 15:35:25;;;;;;;;;;;;;;;8.63;100.00;98251.94;5020950;28;19925;-83
2022/09/26 15:37:55;;;;;;;;;;;;;;;8.64;100.00;98260.69;5010820;28;19971;-84
2022/09/26 15:40:22;;;;;;;;;;;;;;;8.64;100.00;98255.41;5021461;28;19985;-84
2022/09/26 15:43:01;;;;;;;;;;;;;;;8.54;100.00;98253.31;5002895;28;19922;-83
2022/09/26 15:45:29;;;;;;;;;;;;;;;8.55;100.00;98254.13;5002928;28;19926;-83
2022/09/26 15:48:05;;;;;;;;;;;;;;;8.54;100.00;98255.94;5007811;28;20404;-82
2022/09/26 15:50:30;;;;;;;;;;;;;;;8.59;100.00;98252.19;5015596;28;20001;-83
2022/09/26 15:53:00;;;;;;;;;;;;;;;8.58;100.00;98255.75;5004245;28;20020;-82
2022/09/26 15:55:32;;;;;;;;;;;;;;;8.56;100.00;98247.94;5005541;28;19972;-82
2022/09/26 15:57:59;;;;;;;;;;;;;;;8.63;100.00;98236.09;5023739;28;19921;-83
2022/09/26 16:00:28;;;;;;;;;;;;;;;8.57;100.00;98240.84;5005984;28;19925;-83
2022/09/26 16:02:53;;;;;;;;;;;;;;;8.58;100.00;98224.91;5025240;28;19922;-83
2022/09/26 16:05:20;;;;;;;;;;;;;;;8.61;100.00;98224.75;5025260;28;19924;-86
2022/09/26 16:07:50;;;;;;;;;;;;;;;8.70;100.00;98220.72;5025365;28;20014;-83
2022/09/26 16:10:20;;;;;;;;;;;;;;;8.60;100.00;98216.91;5024089;28;19928;-82
2022/09/26 16:12:46;;;;;;;;;;;;;;;8.60;100.00;98216.91;5023335;28;20039;-82
2022/09/26 16:15:16;;;;;;;;;;;;;;;8.67;100.00;98207.69;5018649;28;20407;-82
2022/09/26 16:17:48;;;;;;;;;;;;;;;8.68;100.00;98204.09;5023093;28;20431;-83
2022/09/26 16:20:16;;;;;;;;;;;;;;;8.63;100.00;98195.59;5023812;28;19918;-82
2022/09/26 16:22:44;;;;;;;;;;;;;;;8.66;100.00;98188.38;5024645;28;19963;-83
2022/09/26 16:25:19;;;;;;;;;;;;;;;8.62;100.00;98186.00;5024335;28;19918;-83
2022/09/26 16:27:45;;;;;;;;;;;;;;;8.64;100.00;98176.19;5023619;28;19917;-82
2022/09/26 16:30:19;;;;;;;;;;;;;;;8.65;100.00;98175.25;5024087;28;19924;-83
2022/09/26 16:32:45;;;;;;;;;;;;;;;8.71;100.00;98174.88;5022193;28;19921;-83
2022/09/26 16:35:20;;;;;;;;;;;;;;;8.70;100.00;98175.81;5021794;28;19932;-83
2022/09/26 16:38:14;;;;;;;;;;;;;;;8.64;100.00;98173.56;5023610;28;19921;-83
2022/09/26 16:40:48;;;;;;;;;;;;;;;8.70;100.00;98166.09;5023072;28;19952;-84
2022/09/26 16:43:17;;;;;;;;;;;;;;;8.72;100.00;98169.50;5023296;28;19921;-82
2022/09/26 16:45:47;;;;;;;;;;;;;;;8.78;100.00;98168.28;5024271;28;20012;-83
2022/09/26 16:48:31;;;;;;;;;;;;;;;8.71;100.00;98166.94;5006817;28;19920;-83
2022/09/26 16:51:15;;;;;;;;;;;;;;;8.77;100.00;98157.81;5023023;28;20364;-82
2022/09/26 16:53:45;;;;;;;;;;;;;;;8.68;100.00;98160.06;5023385;28;19917;-82
2022/09/26 16:56:24;;;;;;;;;;;;;;;8.72;100.00;98152.81;5017969;28;20837;-82
2022/09/26 16:58:53;;;;;;;;;;;;;;;8.71;100.00;98151.09;5019634;28;19925;-82
2022/09/26 17:04:03;;;;;;;;;;;;;;;8.74;100.00;98140.34;5024608;28;20013;-83
2022/09/26 17:06:29;;;;;;;;;;;;;;;8.72;100.00;98143.09;5020747;28;20359;-83
2022/09/26 17:08:56;;;;;;;;;;;;;;;8.60;100.00;98143.84;5020111;28;19921;-84
2022/09/26 17:11:22;;;;;;;;;;;;;;;8.63;100.00;98135.75;5021802;28;19960;-83
2022/09/26 17:13:48;;;;;;;;;;;;;;;8.63;100.00;98137.53;5003363;28;19925;-83
2022/09/26 17:16:14;;;;;;;;;;;;;;;8.68;100.00;98140.72;5005391;28;20275;-83
2022/09/26 17:18:42;;;;;;;;;;;;;;;8.62;100.00;98149.03;5021398;28;19922;-84
2022/09/26 17:21:07;;;;;;;;;;;;;;;8.58;100.00;98136.97;5018401;28;19926;-84
2022/09/26 17:23:35;;;;;;;;;;;;;;;8.68;100.00;98119.59;5019937;28;19932;-85
2022/09/26 17:26:03;;;;;;;;;;;;;;;8.67;100.00;98112.63;5020259;28;20360;-86
2022/09/26 17:28:32;;;;;;;;;;;;;;;8.73;100.00;98117.53;5012870;28;19963;-84
2022/09/26 17:31:04;;;;;;;;;;;;;;;8.66;100.00;98108.28;5022922;28;19931;-84
2022/09/26 17:33:30;;;;;;;;;;;;;;;8.67;100.00;98107.34;5022798;28;20790;-84
2022/09/26 17:35:55;;;;;;;;;;;;;;;8.66;100.00;98100.38;5021090;28;19922;-84
2022/09/26 17:38:20;;;;;;;;;;;;;;;8.65;100.00;98103.97;5003753;28;20399;-85
2022/09/26 17:40:46;;;;;;;;;;;;;;;8.64;100.00;98102.25;5004617;28;19921;-85
2022/09/26 17:43:13;;;;;;;;;;;;;;;8.62;100.00;98112.09;5002326;28;20055;-84
2022/09/26 17:45:43;;;;;;;;;;;;;;;8.68;100.00;98099.34;5021433;28;20377;-84
2022/09/26 17:48:12;;;;;;;;;;;;;;;8.62;100.00;98098.88;5004824;28;19921;-85
2022/09/26 17:50:37;;;;;;;;;;;;;;;8.62;100.00;98104.16;5010154;28;20351;-84
2022/09/26 17:53:04;;;;;;;;;;;;;;;8.61;100.00;98094.53;5002650;28;19925;-85
2022/09/26 17:55:30;;;;;;;;;;;;;;;8.65;100.00;98098.69;5019110;28;19921;-86
2022/09/26 17:57:57;;;;;;;;;;;;;;;8.58;100.00;98085.00;5003925;28;20265;-85
2022/09/26 18:00:22;;;;;;;;;;;;;;;8.50;100.00;98088.13;5005723;28;20365;-85
2022/09/26 18:02:51;;;;;;;;;;;;;;;8.62;100.00;98083.03;5004967;28;20036;-85
2022/09/26 18:05:28;;;;;;;;;;;;;;;8.62;100.00;98078.59;5005434;28;19921;-86
2022/09/26 18:07:54;;;;;;;;;;;;;;;8.57;100.00;98075.41;5003183;28;19960;-85
2022/09/26 18:10:25;;;;;;;;;;;;;;;8.64;100.00;98075.88;5020350;28;19917;-88
2022/09/26 18:12:56;;;;;;;;;;;;;;;8.68;100.00;98077.34;5004256;28;19967;-86
2022/09/26 18:15:22;;;;;;;;;;;;;;;8.60;100.00;98075.22;5012413;28;19921;-86
2022/09/26 18:17:48;;;;;;;;;;;;;;;8.65;100.00;98075.78;5005669;28;19921;-86
2022/09/26 18:20:14;;;;;;;;;;;;;;;8.62;100.00;98075.97;5018613;28;20432;-86
2022/09/26 18:22:43;;;;;;;;;;;;;;;8.66;100.00;98068.69;5005106;28;19917;-86
2022/09/26 18:25:11;;;;;;;;;;;;;;;8.67;100.00;98070.41;5004968;28;19924;-86
2022/09/26 18:27:39;;;;;;;;;;;;;;;8.68;100.00;98058.88;5018994;28;19924;-87
2022/09/26 18:30:06;;;;;;;;;;;;;;;8.71;100.00;98056.03;5019131;28;19964;-85
2022/09/26 18:32:33;;;;;;;;;;;;;;;8.68;100.00;98053.59;5021548;28;20016;-85
2022/09/26 18:35:08;;;;;;;;;;;;;;;8.67;100.00;98057.19;5020841;28;20033;-86
2022/09/26 18:37:46;;;;;;;;;;;;;;;8.61;100.00;98054.94;5021286;28;19921;-86
2022/09/26 18:40:15;;;;;;;;;;;;;;;8.67;100.00;98049.28;5019022;28;20367;-85
2022/09/26 18:42:45;;;;;;;;;;;;;;;8.69;100.00;98050.84;5018475;28;19921;-85
2022/09/26 18:45:35;;;;;;;;;;;;;;;8.62;100.00;98041.63;5021586;28;19940;-87
2022/09/26 18:48:10;;;;;;;;;;;;;;;8.61;100.00;98042.56;5020419;28;19956;-86
2022/09/26 18:50:37;;;;;;;;;;;;;;;8.69;100.00;98034.16;5020616;28;19929;-86
2022/09/26 18:53:03;;;;;;;;;;;;;;;8.69;100.00;98039.44;5022241;28;19917;-85
2022/09/26 18:58:23;;;;;;;;;;;;;;;8.62;100.00;98030.22;5021652;28;19963;-85
2022/09/26 19:00:53;;;;;;;;;;;;;;;8.61;100.00;98033.81;5002022;28;19922;-85
2022/09/26 19:03:21;;;;;;;;;;;;;;;8.69;100.00;98029.72;5020820;28;19918;-85
2022/09/26 19:05:46;;;;;;;;;;;;;;;8.70;100.00;98025.31;5020094;28;20369;-85
2022/09/26 19:08:32;;;;;;;;;;;;;;;8.67;100.00;98028.16;5003028;28;19964;-85
2022/09/26 19:10:58;;;;;;;;;;;;;;;8.66;100.00;98023.81;5019126;28;19921;-85
2022/09/26 19:13:24;;;;;;;;;;;;;;;8.63;100.00;98024.88;5003329;28;20289;-84
2022/09/26 19:15:49;;;;;;;;;;;;;;;8.69;100.00;98026.25;5020872;28;19921;-85
2022/09/26 19:18:14;;;;;;;;;;;;;;;8.73;100.00;98027.75;5021781;28;19921;-83
2022/09/26 19:20:39;;;;;;;;;;;;;;;8.73;100.00;98014.56;5025069;28;19964;-84
2022/09/26 19:23:05;;;;;;;;;;;;;;;8.68;100.00;98014.84;5027970;28;19917;-84
2022/09/26 19:25:30;;;;;;;;;;;;;;;8.71;100.00;98013.78;5027178;28;19918;-85
2022/09/26 19:27:55;;;;;;;;;;;;;;;8.76;100.00;98017.00;5027959;28;19921;-85
2022/09/26 19:30:21;;;;;;;;;;;;;;;8.73;100.00;98011.91;5024625;28;19925;-85
2022/09/26 19:32:48;;;;;;;;;;;;;;;8.67;100.00;98004.38;5027050;28;19924;-85
2022/09/26 19:35:30;;;;;;;;;;;;;;;8.79;100.00;98000.97;5028578;28;19920;-85
2022/09/26 19:37:56;;;;;;;;;;;;;;;8.67;100.00;98005.22;5027547;28;19917;-85
2022/09/26 19:40:22;;;;;;;;;;;;;;;8.73;100.00;98001.34;5009854;28;19917;-85
2022/09/26 19:42:48;;;;;;;;;;;;;;;8.80;100.00;98007.09;5022451;28;20004;-85
2022/09/26 19:45:14;;;;;;;;;;;;;;;8.73;100.00;97991.63;5026386;28;19922;-88
2022/09/26 19:47:41;;;;;;;;;;;;;;;8.69;100.00;98002.47;5024343;28;19980;-85
2022/09/26 19:50:13;;;;;;;;;;;;;;;8.74;100.00;97997.75;5026740;28;19929;-85
2022/09/26 19:52:38;;;;;;;;;;;;;;;8.79;100.00;97987.75;5026367;28;20366;-85
2022/09/26 19:55:10;;;;;;;;;;;;;;;8.75;100.00;97991.53;5027882;28;19952;-85
2022/09/26 19:57:35;;;;;;;;;;;;;;;8.75;100.00;97988.91;5025942;28;19921;-85
2022/09/26 20:00:00;;;;;;;;;;;;;;;8.73;100.00;97985.50;5006671;28;19921;-86
2022/09/26 20:02:30;;;;;;;;;;;;;;;8.69;100.00;97978.72;5008780;28;19917;-87
2022/09/26 20:04:55;;;;;;;;;;;;;;;8.74;100.00;97979.28;5027320;28;20020;-85
2022/09/26 20:07:20;;;;;;;;;;;;;;;8.70;100.00;97983.91;5015194;28;20658;-84
2022/09/26 20:09:46;;;;;;;;;;;;;;;8.71;100.00;97977.69;5017564;28;20404;-85
2022/09/26 20:12:12;;;;;;;;;;;;;;;8.75;100.00;97980.97;5008079;28;19921;-84
2022/09/26 20:14:38;;;;;;;;;;;;;;;8.72;100.00;97975.88;5026014;28;19917;-85
2022/09/26 20:17:21;;;;;;;;;;;;;;;8.70;100.00;97981.25;5009940;28;19928;-85
2022/09/26 20:19:47;;;;;;;;;;;;;;;8.72;100.00;97963.53;5010516;28;20258;-85
2022/09/26 20:22:14;;;;;;;;;;;;;;;8.77;100.00;97976.44;5027214;28;19927;-85
2022/09/26 20:24:41;;;;;;;;;;;;;;;8.68;100.00;97966.47;5027210;28;19963;-85
2022/09/26 20:27:12;;;;;;;;;;;;;;;8.71;100.00;97971.53;5025704;28;19928;-84
2022/09/26 20:32:25;;;;;;;;;;;;;;;8.73;100.00;97954.66;4994203;28;20357;-84
2022/09/26 20:34:51;;;;;;;;;;;;;;;8.69;100.00;97954.97;5023034;28;19971;-86
2022/09/26 20:37:18;;;;;;;;;;;;;;;8.74;100.00;97955.50;5006542;28;20258;-84
2022/09/26 20:39:45;;;;;;;;;;;;;;;8.77;100.00;97944.75;5022300;28;19931;-84
2022/09/26 20:42:14;;;;;;;;;;;;;;;8.80;100.00;97949.81;5020936;28;19925;-85
2022/09/26 20:44:39;;;;;;;;;;;;;;;8.81;100.00;97948.06;5023742;28;19918;-85
2022/09/26 20:47:05;;;;;;;;;;;;;;;8.82;100.00;97945.31;5023820;28;19925;-84
2022/09/26 20:49:39;;;;;;;;;;;;;;;8.78;100.00;97933.25;5022713;28;19926;-86
2022/09/26 20:52:07;;;;;;;;;;;;;;;8.84;100.00;97935.50;5021365;28;20011;-85
2022/09/26 20:54:33;;;;;;;;;;;;;;;8.80;100.00;97935.78;5024036;28;20388;-84
2022/09/26 20:56:58;;;;;;;;;;;;;;;8.85;100.00;97931.88;5022615;28;19973;-84
2022/09/26 20:59:24;;;;;;;;;;;;;;;8.82;100.00;97921.56;5022156;28;20360;-84
2022/09/26 21:01:50;;;;;;;;;;;;;;;8.83;100.00;97925.03;5024429;28;19921;-84
2022/09/26 21:04:17;;;;;;;;;;;;;;;8.85;100.00;97916.03;5024027;28;19928;-84